createdAt,value
2022-10-30T00:03:48.781Z,5.15
2022-10-30T00:18:49.318Z,4.19
2022-10-30T00:33:49.035Z,7.12
2022-10-30T00:48:48.934Z,4.2
2022-10-30T01:18:49.248Z,4.78
2022-10-30T01:33:48.933Z,3.78
2022-10-30T01:48:48.869Z,4.34
2022-10-30T02:03:48.892Z,3.26
2022-10-30T02:18:48.723Z,4.47
2022-10-30T02:33:49.608Z,3.38
2022-10-30T02:48:49.069Z,3.65
2022-10-30T03:03:49.126Z,3.82
2022-10-30T03:18:49.008Z,3.72
2022-10-30T04:03:48.794Z,3.39
2022-10-30T04:18:48.757Z,3.17
2022-10-30T04:33:48.816Z,3.86
2022-10-30T04:48:48.824Z,2.94
2022-10-30T05:03:50.558Z,3.65
2022-10-30T05:18:48.869Z,4.48
2022-10-30T05:33:49.195Z,3.65
2022-10-30T05:48:59.282Z,4.9
2022-10-30T06:03:49.459Z,6.93
2022-10-30T06:18:48.573Z,4.72
2022-10-30T06:33:48.855Z,4.38
2022-10-30T06:48:48.782Z,7.5
2022-10-30T07:03:49.381Z,6.46
2022-10-30T07:18:48.687Z,6.6
2022-10-30T07:33:49.767Z,6.99
2022-10-30T07:48:48.518Z,5.19
2022-10-30T15:03:50.170Z,2.64
2022-10-30T15:18:49.275Z,4.23
2022-10-30T15:33:48.679Z,3.46
2022-10-30T15:48:48.608Z,3.86
2022-10-30T16:03:49.057Z,7.16
2022-10-30T16:18:49.444Z,7.14
2022-10-30T16:33:49.187Z,38.97
2022-10-30T17:03:49.036Z,23.61
2022-10-30T17:18:49.297Z,28.85
2022-10-30T17:33:48.537Z,23.52
2022-10-30T19:03:48.788Z,17.1
2022-10-30T20:03:49.469Z,30.1
2022-10-30T20:18:48.992Z,19.52
2022-10-30T20:33:49.359Z,17.82
2022-10-30T20:48:48.976Z,11.23
2022-10-30T21:03:49.584Z,6.5
2022-10-30T21:18:50.108Z,6.85
2022-10-30T21:33:48.975Z,5.06
2022-10-30T21:48:48.905Z,5.23
2022-10-30T22:03:48.725Z,4.53
2022-10-30T22:33:48.747Z,4.19
2022-10-30T22:48:48.685Z,4.1
